sensor_id;sensor_type;location;lat;lon;timestamp;temperature;humidity
8565;DHT22;4320;51.498;6.556;2023-04-10T00:01:37;11.00;1.00
8565;DHT22;4320;51.498;6.556;2023-04-10T00:04:03;10.90;1.00
8565;DHT22;4320;51.498;6.556;2023-04-10T00:06:29;10.90;1.00
8565;DHT22;4320;51.498;6.556;2023-04-10T00:08:56;10.90;1.00
8565;DHT22;4320;51.498;6.556;2023-04-10T00:11:22;10.90;1.00
8565;DHT22;4320;51.498;6.556;2023-04-10T00:13:48;10.80;1.00
8565;DHT22;4320;51.498;6.556;2023-04-10T00:16:14;10.80;1.00
8565;DHT22;4320;51.498;6.556;2023-04-10T00:18:40;10.80;1.00
8565;DHT22;4320;51.498;6.556;2023-04-10T00:21:05;10.80;1.00
8565;DHT22;4320;51.498;6.556;2023-04-10T00:23:31;10.80;1.00
8565;DHT22;4320;51.498;6.556;2023-04-10T00:25:59;10.90;1.00
8565;DHT22;4320;51.498;6.556;2023-04-10T00:28:25;10.90;1.00
8565;DHT22;4320;51.498;6.556;2023-04-10T00:30:50;10.90;1.00
8565;DHT22;4320;51.498;6.556;2023-04-10T00:33:16;10.90;1.00
8565;DHT22;4320;51.498;6.556;2023-04-10T00:35:41;10.80;1.00
8565;DHT22;4320;51.498;6.556;2023-04-10T00:38:07;10.80;1.00
8565;DHT22;4320;51.498;6.556;2023-04-10T00:40:32;10.80;1.00
8565;DHT22;4320;51.498;6.556;2023-04-10T00:42:59;10.90;1.00
8565;DHT22;4320;51.498;6.556;2023-04-10T00:45:25;10.90;1.00
8565;DHT22;4320;51.498;6.556;2023-04-10T00:47:51;10.90;1.00
8565;DHT22;4320;51.498;6.556;2023-04-10T00:50:18;10.90;1.00
8565;DHT22;4320;51.498;6.556;2023-04-10T00:52:44;10.80;1.00
8565;DHT22;4320;51.498;6.556;2023-04-10T00:55:10;10.90;1.00
8565;DHT22;4320;51.498;6.556;2023-04-10T00:57:37;10.90;1.00
8565;DHT22;4320;51.498;6.556;2023-04-10T01:00:03;10.90;1.00
8565;DHT22;4320;51.498;6.556;2023-04-10T01:02:29;10.90;1.00
8565;DHT22;4320;51.498;6.556;2023-04-10T01:04:56;10.90;1.00
8565;DHT22;4320;51.498;6.556;2023-04-10T01:15:52;10.90;1.00
8565;DHT22;4320;51.498;6.556;2023-04-10T01:18:43;10.90;1.00
8565;DHT22;4320;51.498;6.556;2023-04-10T01:21:11;10.90;1.00
8565;DHT22;4320;51.498;6.556;2023-04-10T01:24:13;10.90;1.00
8565;DHT22;4320;51.498;6.556;2023-04-10T01:29:21;10.70;1.00
8565;DHT22;4320;51.498;6.556;2023-04-10T01:31:53;10.70;1.00
8565;DHT22;4320;51.498;6.556;2023-04-10T01:34:32;10.70;1.00
8565;DHT22;4320;51.498;6.556;2023-04-10T01:37:03;10.70;1.00
8565;DHT22;4320;51.498;6.556;2023-04-10T01:39:29;10.80;1.00
8565;DHT22;4320;51.498;6.556;2023-04-10T01:41:57;10.70;1.00
8565;DHT22;4320;51.498;6.556;2023-04-10T01:44:26;10.60;1.00
8565;DHT22;4320;51.498;6.556;2023-04-10T01:46:54;10.70;1.00
8565;DHT22;4320;51.498;6.556;2023-04-10T01:49:21;10.70;1.00
8565;DHT22;4320;51.498;6.556;2023-04-10T01:51:48;10.60;1.00
8565;DHT22;4320;51.498;6.556;2023-04-10T01:54:16;10.60;1.00
8565;DHT22;4320;51.498;6.556;2023-04-10T01:56:42;10.50;1.00
8565;DHT22;4320;51.498;6.556;2023-04-10T01:59:08;10.50;1.00
8565;DHT22;4320;51.498;6.556;2023-04-10T02:01:34;10.50;1.00
8565;DHT22;4320;51.498;6.556;2023-04-10T02:04:01;10.40;1.00
8565;DHT22;4320;51.498;6.556;2023-04-10T02:06:36;10.40;1.00
8565;DHT22;4320;51.498;6.556;2023-04-10T02:09:15;10.40;1.00
8565;DHT22;4320;51.498;6.556;2023-04-10T02:11:53;10.30;1.00
8565;DHT22;4320;51.498;6.556;2023-04-10T02:14:21;10.30;1.00
8565;DHT22;4320;51.498;6.556;2023-04-10T02:16:49;10.20;1.00
8565;DHT22;4320;51.498;6.556;2023-04-10T02:19:18;10.20;1.00
8565;DHT22;4320;51.498;6.556;2023-04-10T02:21:45;10.20;1.00
8565;DHT22;4320;51.498;6.556;2023-04-10T02:24:12;10.30;1.00
8565;DHT22;4320;51.498;6.556;2023-04-10T02:26:48;10.20;1.00
8565;DHT22;4320;51.498;6.556;2023-04-10T02:29:15;10.20;1.00
8565;DHT22;4320;51.498;6.556;2023-04-10T02:31:41;10.10;1.00
8565;DHT22;4320;51.498;6.556;2023-04-10T02:34:07;10.20;1.00
8565;DHT22;4320;51.498;6.556;2023-04-10T02:36:35;10.10;1.00
8565;DHT22;4320;51.498;6.556;2023-04-10T02:39:00;10.10;1.00
8565;DHT22;4320;51.498;6.556;2023-04-10T02:41:26;10.00;1.00
8565;DHT22;4320;51.498;6.556;2023-04-10T02:43:52;10.00;1.00
8565;DHT22;4320;51.498;6.556;2023-04-10T02:46:17;10.00;1.00
8565;DHT22;4320;51.498;6.556;2023-04-10T02:48:43;10.00;1.00
8565;DHT22;4320;51.498;6.556;2023-04-10T02:51:09;10.00;1.00
8565;DHT22;4320;51.498;6.556;2023-04-10T02:53:34;10.00;1.00
8565;DHT22;4320;51.498;6.556;2023-04-10T02:56:00;10.00;1.00
8565;DHT22;4320;51.498;6.556;2023-04-10T02:58:27;10.00;1.00
8565;DHT22;4320;51.498;6.556;2023-04-10T03:00:52;10.00;1.00
8565;DHT22;4320;51.498;6.556;2023-04-10T03:03:18;10.00;1.00
8565;DHT22;4320;51.498;6.556;2023-04-10T03:05:45;10.00;1.00
8565;DHT22;4320;51.498;6.556;2023-04-10T03:08:13;10.00;1.00
8565;DHT22;4320;51.498;6.556;2023-04-10T03:10:38;10.00;1.00
8565;DHT22;4320;51.498;6.556;2023-04-10T03:13:04;10.00;1.00
8565;DHT22;4320;51.498;6.556;2023-04-10T03:15:30;9.90;1.00
8565;DHT22;4320;51.498;6.556;2023-04-10T03:17:56;10.00;1.00
8565;DHT22;4320;51.498;6.556;2023-04-10T03:20:22;10.00;1.00
8565;DHT22;4320;51.498;6.556;2023-04-10T03:22:47;9.90;1.00
8565;DHT22;4320;51.498;6.556;2023-04-10T03:25:13;9.90;1.00
8565;DHT22;4320;51.498;6.556;2023-04-10T03:27:39;9.90;1.00
8565;DHT22;4320;51.498;6.556;2023-04-10T03:30:05;9.80;1.00
8565;DHT22;4320;51.498;6.556;2023-04-10T03:32:31;9.80;1.00
8565;DHT22;4320;51.498;6.556;2023-04-10T03:34:57;9.80;1.00
8565;DHT22;4320;51.498;6.556;2023-04-10T03:37:25;9.80;1.00
8565;DHT22;4320;51.498;6.556;2023-04-10T03:39:53;9.80;1.00
8565;DHT22;4320;51.498;6.556;2023-04-10T03:42:19;9.80;1.00
8565;DHT22;4320;51.498;6.556;2023-04-10T03:44:44;9.70;1.00
8565;DHT22;4320;51.498;6.556;2023-04-10T03:47:10;9.70;1.00
8565;DHT22;4320;51.498;6.556;2023-04-10T03:49:36;9.60;1.00
8565;DHT22;4320;51.498;6.556;2023-04-10T03:52:02;9.60;1.00
8565;DHT22;4320;51.498;6.556;2023-04-10T03:54:27;9.60;1.00
8565;DHT22;4320;51.498;6.556;2023-04-10T03:56:53;9.60;1.00
8565;DHT22;4320;51.498;6.556;2023-04-10T03:59:18;9.60;1.00
8565;DHT22;4320;51.498;6.556;2023-04-10T04:01:44;9.60;1.00
8565;DHT22;4320;51.498;6.556;2023-04-10T04:04:10;9.60;1.00
8565;DHT22;4320;51.498;6.556;2023-04-10T04:06:35;9.60;1.00
8565;DHT22;4320;51.498;6.556;2023-04-10T04:09:01;9.50;1.00
8565;DHT22;4320;51.498;6.556;2023-04-10T04:11:26;9.50;1.00
8565;DHT22;4320;51.498;6.556;2023-04-10T04:13:52;9.50;1.00
8565;DHT22;4320;51.498;6.556;2023-04-10T04:16:18;9.50;1.00
8565;DHT22;4320;51.498;6.556;2023-04-10T04:18:43;9.40;1.00
8565;DHT22;4320;51.498;6.556;2023-04-10T04:21:09;9.40;1.00
8565;DHT22;4320;51.498;6.556;2023-04-10T04:23:34;9.40;1.00
8565;DHT22;4320;51.498;6.556;2023-04-10T04:26:00;9.40;1.00
8565;DHT22;4320;51.498;6.556;2023-04-10T04:28:26;9.40;1.00
8565;DHT22;4320;51.498;6.556;2023-04-10T04:30:52;9.30;1.00
8565;DHT22;4320;51.498;6.556;2023-04-10T04:33:17;9.30;1.00
8565;DHT22;4320;51.498;6.556;2023-04-10T04:35:43;9.30;1.00
8565;DHT22;4320;51.498;6.556;2023-04-10T04:38:08;9.30;1.00
8565;DHT22;4320;51.498;6.556;2023-04-10T04:40:34;9.40;1.00
8565;DHT22;4320;51.498;6.556;2023-04-10T04:42:59;9.40;1.00
8565;DHT22;4320;51.498;6.556;2023-04-10T04:45:25;9.30;1.00
8565;DHT22;4320;51.498;6.556;2023-04-10T04:47:51;9.40;1.00
8565;DHT22;4320;51.498;6.556;2023-04-10T04:50:16;9.30;1.00
8565;DHT22;4320;51.498;6.556;2023-04-10T04:52:43;9.30;1.00
8565;DHT22;4320;51.498;6.556;2023-04-10T04:55:09;9.30;1.00
8565;DHT22;4320;51.498;6.556;2023-04-10T04:57:34;9.30;1.00
8565;DHT22;4320;51.498;6.556;2023-04-10T05:00:00;9.30;1.00
8565;DHT22;4320;51.498;6.556;2023-04-10T05:02:25;9.30;1.00
8565;DHT22;4320;51.498;6.556;2023-04-10T05:04:51;9.20;1.00
8565;DHT22;4320;51.498;6.556;2023-04-10T05:07:17;9.30;1.00
8565;DHT22;4320;51.498;6.556;2023-04-10T05:09:42;9.30;1.00
8565;DHT22;4320;51.498;6.556;2023-04-10T05:12:08;9.30;1.00
8565;DHT22;4320;51.498;6.556;2023-04-10T05:14:33;9.30;1.00
8565;DHT22;4320;51.498;6.556;2023-04-10T05:16:59;9.30;1.00
8565;DHT22;4320;51.498;6.556;2023-04-10T05:19:25;9.40;1.00
8565;DHT22;4320;51.498;6.556;2023-04-10T05:21:50;9.50;1.00
8565;DHT22;4320;51.498;6.556;2023-04-10T05:24:16;9.60;1.00
8565;DHT22;4320;51.498;6.556;2023-04-10T05:26:42;9.60;1.00
8565;DHT22;4320;51.498;6.556;2023-04-10T05:29:07;9.50;1.00
8565;DHT22;4320;51.498;6.556;2023-04-10T05:31:33;9.60;1.00
8565;DHT22;4320;51.498;6.556;2023-04-10T05:33:58;9.60;1.00
8565;DHT22;4320;51.498;6.556;2023-04-10T05:36:24;9.60;1.00
8565;DHT22;4320;51.498;6.556;2023-04-10T05:38:51;9.70;1.00
8565;DHT22;4320;51.498;6.556;2023-04-10T05:41:16;9.80;1.00
8565;DHT22;4320;51.498;6.556;2023-04-10T05:43:42;9.80;1.00
8565;DHT22;4320;51.498;6.556;2023-04-10T05:46:07;9.70;1.00
8565;DHT22;4320;51.498;6.556;2023-04-10T05:48:33;9.90;1.00
8565;DHT22;4320;51.498;6.556;2023-04-10T05:50:59;9.90;1.00
8565;DHT22;4320;51.498;6.556;2023-04-10T05:53:28;10.00;1.00
8565;DHT22;4320;51.498;6.556;2023-04-10T05:55:57;10.10;1.00
8565;DHT22;4320;51.498;6.556;2023-04-10T05:58:25;10.10;1.00
8565;DHT22;4320;51.498;6.556;2023-04-10T06:00:51;10.10;1.00
8565;DHT22;4320;51.498;6.556;2023-04-10T06:03:17;10.20;1.00
8565;DHT22;4320;51.498;6.556;2023-04-10T06:05:43;10.30;1.00
8565;DHT22;4320;51.498;6.556;2023-04-10T06:08:08;10.30;1.00
8565;DHT22;4320;51.498;6.556;2023-04-10T06:10:34;10.30;1.00
8565;DHT22;4320;51.498;6.556;2023-04-10T06:13:00;10.40;1.00
8565;DHT22;4320;51.498;6.556;2023-04-10T06:15:26;10.50;1.00
8565;DHT22;4320;51.498;6.556;2023-04-10T06:17:51;10.50;1.00
8565;DHT22;4320;51.498;6.556;2023-04-10T06:20:18;10.60;1.00
8565;DHT22;4320;51.498;6.556;2023-04-10T06:22:44;10.70;1.00
8565;DHT22;4320;51.498;6.556;2023-04-10T06:25:10;10.80;1.00
8565;DHT22;4320;51.498;6.556;2023-04-10T06:27:36;10.90;1.00
8565;DHT22;4320;51.498;6.556;2023-04-10T06:30:02;11.10;1.00
8565;DHT22;4320;51.498;6.556;2023-04-10T06:32:27;11.20;1.00
8565;DHT22;4320;51.498;6.556;2023-04-10T06:34:53;11.40;1.00
8565;DHT22;4320;51.498;6.556;2023-04-10T06:37:19;11.70;1.00
8565;DHT22;4320;51.498;6.556;2023-04-10T06:39:44;12.10;1.00
8565;DHT22;4320;51.498;6.556;2023-04-10T06:42:10;12.60;1.00
8565;DHT22;4320;51.498;6.556;2023-04-10T06:44:36;13.00;1.00
8565;DHT22;4320;51.498;6.556;2023-04-10T06:47:01;13.30;1.00
8565;DHT22;4320;51.498;6.556;2023-04-10T06:49:27;13.10;1.00
8565;DHT22;4320;51.498;6.556;2023-04-10T06:51:52;13.10;1.00
8565;DHT22;4320;51.498;6.556;2023-04-10T06:54:18;13.30;1.00
8565;DHT22;4320;51.498;6.556;2023-04-10T06:56:43;13.70;1.00
8565;DHT22;4320;51.498;6.556;2023-04-10T06:59:09;14.10;1.00
8565;DHT22;4320;51.498;6.556;2023-04-10T07:01:35;14.30;1.00
8565;DHT22;4320;51.498;6.556;2023-04-10T07:04:01;14.60;1.00
8565;DHT22;4320;51.498;6.556;2023-04-10T07:06:26;15.10;1.00
8565;DHT22;4320;51.498;6.556;2023-04-10T07:08:53;15.00;1.00
8565;DHT22;4320;51.498;6.556;2023-04-10T07:11:18;14.60;1.00
8565;DHT22;4320;51.498;6.556;2023-04-10T07:13:44;14.60;1.00
8565;DHT22;4320;51.498;6.556;2023-04-10T07:16:10;14.40;1.00
8565;DHT22;4320;51.498;6.556;2023-04-10T07:18:36;14.30;1.00
8565;DHT22;4320;51.498;6.556;2023-04-10T07:21:12;14.10;1.00
8565;DHT22;4320;51.498;6.556;2023-04-10T07:23:37;14.30;1.00
8565;DHT22;4320;51.498;6.556;2023-04-10T07:26:03;14.20;1.00
8565;DHT22;4320;51.498;6.556;2023-04-10T07:28:29;14.20;1.00
8565;DHT22;4320;51.498;6.556;2023-04-10T07:30:55;14.00;1.00
8565;DHT22;4320;51.498;6.556;2023-04-10T07:33:20;14.30;1.00
8565;DHT22;4320;51.498;6.556;2023-04-10T07:35:46;14.70;1.00
8565;DHT22;4320;51.498;6.556;2023-04-10T07:38:11;15.10;1.00
8565;DHT22;4320;51.498;6.556;2023-04-10T07:40:37;15.10;1.00
8565;DHT22;4320;51.498;6.556;2023-04-10T07:43:03;15.40;1.00
8565;DHT22;4320;51.498;6.556;2023-04-10T07:45:28;15.60;1.00
8565;DHT22;4320;51.498;6.556;2023-04-10T07:47:54;16.00;1.00
8565;DHT22;4320;51.498;6.556;2023-04-10T07:50:20;16.40;1.00
8565;DHT22;4320;51.498;6.556;2023-04-10T07:52:47;16.40;1.00
8565;DHT22;4320;51.498;6.556;2023-04-10T07:55:12;16.50;1.00
8565;DHT22;4320;51.498;6.556;2023-04-10T07:57:38;17.00;1.00
8565;DHT22;4320;51.498;6.556;2023-04-10T08:00:04;16.70;1.00
8565;DHT22;4320;51.498;6.556;2023-04-10T08:02:30;16.40;1.00
8565;DHT22;4320;51.498;6.556;2023-04-10T08:04:55;16.40;1.00
8565;DHT22;4320;51.498;6.556;2023-04-10T08:07:21;16.30;1.00
8565;DHT22;4320;51.498;6.556;2023-04-10T08:09:46;16.30;1.00
8565;DHT22;4320;51.498;6.556;2023-04-10T08:12:12;16.90;1.00
8565;DHT22;4320;51.498;6.556;2023-04-10T08:14:38;16.80;1.00
8565;DHT22;4320;51.498;6.556;2023-04-10T08:17:04;16.70;1.00
8565;DHT22;4320;51.498;6.556;2023-04-10T08:19:29;16.60;1.00
8565;DHT22;4320;51.498;6.556;2023-04-10T08:21:55;16.80;1.00
8565;DHT22;4320;51.498;6.556;2023-04-10T08:24:21;16.70;1.00
8565;DHT22;4320;51.498;6.556;2023-04-10T08:26:47;16.20;1.00
8565;DHT22;4320;51.498;6.556;2023-04-10T08:29:13;16.10;1.00
8565;DHT22;4320;51.498;6.556;2023-04-10T08:31:38;15.70;1.00
8565;DHT22;4320;51.498;6.556;2023-04-10T08:34:04;15.60;1.00
8565;DHT22;4320;51.498;6.556;2023-04-10T08:36:30;15.50;1.00
8565;DHT22;4320;51.498;6.556;2023-04-10T08:38:56;15.50;1.00
8565;DHT22;4320;51.498;6.556;2023-04-10T08:41:21;15.20;1.00
8565;DHT22;4320;51.498;6.556;2023-04-10T08:43:47;15.20;1.00
8565;DHT22;4320;51.498;6.556;2023-04-10T08:46:14;15.30;1.00
8565;DHT22;4320;51.498;6.556;2023-04-10T08:49:00;15.30;1.00
8565;DHT22;4320;51.498;6.556;2023-04-10T08:51:38;15.30;1.00
8565;DHT22;4320;51.498;6.556;2023-04-10T08:54:11;15.30;1.00
8565;DHT22;4320;51.498;6.556;2023-04-10T08:56:40;15.60;1.00
8565;DHT22;4320;51.498;6.556;2023-04-10T08:59:07;15.70;1.00
8565;DHT22;4320;51.498;6.556;2023-04-10T09:01:33;16.10;1.00
8565;DHT22;4320;51.498;6.556;2023-04-10T09:04:00;16.30;1.00
8565;DHT22;4320;51.498;6.556;2023-04-10T09:06:25;16.50;1.00
8565;DHT22;4320;51.498;6.556;2023-04-10T09:08:51;16.50;1.00
8565;DHT22;4320;51.498;6.556;2023-04-10T09:11:17;16.80;1.00
8565;DHT22;4320;51.498;6.556;2023-04-10T09:13:43;17.00;1.00
8565;DHT22;4320;51.498;6.556;2023-04-10T09:16:10;17.40;1.00
8565;DHT22;4320;51.498;6.556;2023-04-10T09:18:47;17.70;1.00
8565;DHT22;4320;51.498;6.556;2023-04-10T09:21:15;17.60;1.00
8565;DHT22;4320;51.498;6.556;2023-04-10T09:23:42;17.40;1.00
8565;DHT22;4320;51.498;6.556;2023-04-10T09:26:25;17.20;1.00
8565;DHT22;4320;51.498;6.556;2023-04-10T09:28:59;16.70;1.00
8565;DHT22;4320;51.498;6.556;2023-04-10T09:31:31;16.40;1.00
8565;DHT22;4320;51.498;6.556;2023-04-10T09:34:16;16.40;1.00
8565;DHT22;4320;51.498;6.556;2023-04-10T09:36:54;16.60;1.00
8565;DHT22;4320;51.498;6.556;2023-04-10T09:39:20;16.40;1.00
8565;DHT22;4320;51.498;6.556;2023-04-10T09:41:50;16.70;1.00
8565;DHT22;4320;51.498;6.556;2023-04-10T09:44:26;16.90;1.00
8565;DHT22;4320;51.498;6.556;2023-04-10T09:46:53;17.10;1.00
8565;DHT22;4320;51.498;6.556;2023-04-10T09:49:19;17.10;1.00
8565;DHT22;4320;51.498;6.556;2023-04-10T09:51:45;17.10;1.00
8565;DHT22;4320;51.498;6.556;2023-04-10T09:54:11;16.90;1.00
8565;DHT22;4320;51.498;6.556;2023-04-10T09:56:38;16.90;1.00
8565;DHT22;4320;51.498;6.556;2023-04-10T09:59:05;16.50;1.00
8565;DHT22;4320;51.498;6.556;2023-04-10T10:01:32;16.80;1.00
8565;DHT22;4320;51.498;6.556;2023-04-10T10:04:02;17.10;1.00
8565;DHT22;4320;51.498;6.556;2023-04-10T10:06:32;17.50;1.00
8565;DHT22;4320;51.498;6.556;2023-04-10T10:09:02;17.60;1.00
8565;DHT22;4320;51.498;6.556;2023-04-10T10:11:30;17.30;1.00
8565;DHT22;4320;51.498;6.556;2023-04-10T10:13:58;17.50;1.00
8565;DHT22;4320;51.498;6.556;2023-04-10T10:16:44;17.40;1.00
8565;DHT22;4320;51.498;6.556;2023-04-10T10:19:23;17.40;1.00
8565;DHT22;4320;51.498;6.556;2023-04-10T10:21:52;17.50;1.00
8565;DHT22;4320;51.498;6.556;2023-04-10T10:24:19;17.40;1.00
8565;DHT22;4320;51.498;6.556;2023-04-10T10:26:46;17.50;1.00
8565;DHT22;4320;51.498;6.556;2023-04-10T10:29:14;17.50;1.00
8565;DHT22;4320;51.498;6.556;2023-04-10T10:31:41;17.50;1.00
8565;DHT22;4320;51.498;6.556;2023-04-10T10:34:07;17.60;1.00
8565;DHT22;4320;51.498;6.556;2023-04-10T10:36:34;17.30;1.00
8565;DHT22;4320;51.498;6.556;2023-04-10T10:42:07;17.40;1.00
8565;DHT22;4320;51.498;6.556;2023-04-10T10:44:49;17.30;1.00
8565;DHT22;4320;51.498;6.556;2023-04-10T10:47:19;17.20;1.00
8565;DHT22;4320;51.498;6.556;2023-04-10T10:49:51;17.20;1.00
8565;DHT22;4320;51.498;6.556;2023-04-10T10:57:51;17.30;1.00
8565;DHT22;4320;51.498;6.556;2023-04-10T11:00:17;17.20;1.00
8565;DHT22;4320;51.498;6.556;2023-04-10T11:02:43;17.50;1.00
8565;DHT22;4320;51.498;6.556;2023-04-10T11:05:09;17.60;1.00
8565;DHT22;4320;51.498;6.556;2023-04-10T11:11:01;17.50;1.00
8565;DHT22;4320;51.498;6.556;2023-04-10T11:13:27;17.70;1.00
8565;DHT22;4320;51.498;6.556;2023-04-10T11:15:55;17.70;1.00
8565;DHT22;4320;51.498;6.556;2023-04-10T11:21:16;17.50;1.00
8565;DHT22;4320;51.498;6.556;2023-04-10T11:32:02;17.70;1.00
8565;DHT22;4320;51.498;6.556;2023-04-10T11:34:28;17.80;1.00
8565;DHT22;4320;51.498;6.556;2023-04-10T11:37:03;17.80;1.00
8565;DHT22;4320;51.498;6.556;2023-04-10T11:39:30;17.60;1.00
8565;DHT22;4320;51.498;6.556;2023-04-10T11:41:55;17.70;1.00
8565;DHT22;4320;51.498;6.556;2023-04-10T11:46:51;17.70;1.00
8565;DHT22;4320;51.498;6.556;2023-04-10T11:49:23;17.80;1.00
8565;DHT22;4320;51.498;6.556;2023-04-10T11:51:50;17.90;1.00
8565;DHT22;4320;51.498;6.556;2023-04-10T11:54:26;17.80;1.00
8565;DHT22;4320;51.498;6.556;2023-04-10T11:57:03;17.90;1.00
8565;DHT22;4320;51.498;6.556;2023-04-10T11:59:31;17.80;1.00
8565;DHT22;4320;51.498;6.556;2023-04-10T12:02:10;17.80;1.00
8565;DHT22;4320;51.498;6.556;2023-04-10T12:04:39;18.00;1.00
8565;DHT22;4320;51.498;6.556;2023-04-10T12:07:06;17.90;1.00
8565;DHT22;4320;51.498;6.556;2023-04-10T12:09:32;17.90;1.00
8565;DHT22;4320;51.498;6.556;2023-04-10T12:11:59;17.90;1.00
8565;DHT22;4320;51.498;6.556;2023-04-10T12:14:33;17.90;1.00
8565;DHT22;4320;51.498;6.556;2023-04-10T12:17:00;17.90;1.00
8565;DHT22;4320;51.498;6.556;2023-04-10T12:19:26;17.90;1.00
8565;DHT22;4320;51.498;6.556;2023-04-10T12:21:53;18.20;1.00
8565;DHT22;4320;51.498;6.556;2023-04-10T12:24:47;18.40;1.00
8565;DHT22;4320;51.498;6.556;2023-04-10T12:27:22;18.80;1.00
8565;DHT22;4320;51.498;6.556;2023-04-10T12:29:51;18.80;1.00
8565;DHT22;4320;51.498;6.556;2023-04-10T12:32:17;18.70;1.00
8565;DHT22;4320;51.498;6.556;2023-04-10T12:34:50;18.50;1.00
8565;DHT22;4320;51.498;6.556;2023-04-10T12:37:16;18.50;1.00
8565;DHT22;4320;51.498;6.556;2023-04-10T12:39:42;18.50;1.00
8565;DHT22;4320;51.498;6.556;2023-04-10T12:42:16;18.70;1.00
8565;DHT22;4320;51.498;6.556;2023-04-10T12:44:56;18.70;1.00
8565;DHT22;4320;51.498;6.556;2023-04-10T12:47:23;18.60;1.00
8565;DHT22;4320;51.498;6.556;2023-04-10T12:50:10;18.50;1.00
8565;DHT22;4320;51.498;6.556;2023-04-10T12:52:37;18.40;1.00
8565;DHT22;4320;51.498;6.556;2023-04-10T12:55:10;18.20;1.00
8565;DHT22;4320;51.498;6.556;2023-04-10T12:57:37;18.30;1.00
8565;DHT22;4320;51.498;6.556;2023-04-10T13:00:07;18.30;1.00
8565;DHT22;4320;51.498;6.556;2023-04-10T13:02:37;18.30;1.00
8565;DHT22;4320;51.498;6.556;2023-04-10T13:05:04;18.20;1.00
8565;DHT22;4320;51.498;6.556;2023-04-10T13:07:30;18.20;1.00
8565;DHT22;4320;51.498;6.556;2023-04-10T13:09:56;18.00;1.00
8565;DHT22;4320;51.498;6.556;2023-04-10T13:12:22;18.00;1.00
8565;DHT22;4320;51.498;6.556;2023-04-10T13:14:49;18.00;1.00
8565;DHT22;4320;51.498;6.556;2023-04-10T13:17:15;17.90;1.00
8565;DHT22;4320;51.498;6.556;2023-04-10T13:19:41;17.90;1.00
8565;DHT22;4320;51.498;6.556;2023-04-10T13:22:06;17.80;1.00
8565;DHT22;4320;51.498;6.556;2023-04-10T13:24:32;17.80;1.00
8565;DHT22;4320;51.498;6.556;2023-04-10T13:26:57;17.90;1.00
8565;DHT22;4320;51.498;6.556;2023-04-10T13:29:23;17.90;1.00
8565;DHT22;4320;51.498;6.556;2023-04-10T13:31:49;17.90;1.00
8565;DHT22;4320;51.498;6.556;2023-04-10T13:34:15;18.00;1.00
8565;DHT22;4320;51.498;6.556;2023-04-10T13:36:41;18.20;1.00
8565;DHT22;4320;51.498;6.556;2023-04-10T13:39:07;18.30;1.00
8565;DHT22;4320;51.498;6.556;2023-04-10T13:41:33;18.40;1.00
8565;DHT22;4320;51.498;6.556;2023-04-10T13:43:58;18.50;1.00
8565;DHT22;4320;51.498;6.556;2023-04-10T13:46:24;18.50;1.00
8565;DHT22;4320;51.498;6.556;2023-04-10T13:48:50;18.50;1.00
8565;DHT22;4320;51.498;6.556;2023-04-10T13:51:16;18.50;1.00
8565;DHT22;4320;51.498;6.556;2023-04-10T13:53:41;18.60;1.00
8565;DHT22;4320;51.498;6.556;2023-04-10T13:56:07;18.70;1.00
8565;DHT22;4320;51.498;6.556;2023-04-10T13:58:33;18.80;1.00
8565;DHT22;4320;51.498;6.556;2023-04-10T14:00:59;18.80;1.00
8565;DHT22;4320;51.498;6.556;2023-04-10T14:03:25;19.00;1.00
8565;DHT22;4320;51.498;6.556;2023-04-10T14:05:51;19.00;1.00
8565;DHT22;4320;51.498;6.556;2023-04-10T14:08:17;18.90;1.00
8565;DHT22;4320;51.498;6.556;2023-04-10T14:10:44;19.00;1.00
8565;DHT22;4320;51.498;6.556;2023-04-10T14:13:10;19.00;1.00
8565;DHT22;4320;51.498;6.556;2023-04-10T14:15:36;19.00;1.00
8565;DHT22;4320;51.498;6.556;2023-04-10T14:18:02;19.10;1.00
8565;DHT22;4320;51.498;6.556;2023-04-10T14:20:27;19.00;1.00
8565;DHT22;4320;51.498;6.556;2023-04-10T14:22:53;19.10;1.00
8565;DHT22;4320;51.498;6.556;2023-04-10T14:25:19;19.00;1.00
8565;DHT22;4320;51.498;6.556;2023-04-10T14:27:45;19.00;1.00
8565;DHT22;4320;51.498;6.556;2023-04-10T14:30:10;19.00;1.00
8565;DHT22;4320;51.498;6.556;2023-04-10T14:32:39;18.90;1.00
8565;DHT22;4320;51.498;6.556;2023-04-10T14:35:05;18.90;1.00
8565;DHT22;4320;51.498;6.556;2023-04-10T14:37:31;18.80;1.00
8565;DHT22;4320;51.498;6.556;2023-04-10T14:39:57;18.80;1.00
8565;DHT22;4320;51.498;6.556;2023-04-10T14:42:22;18.70;1.00
8565;DHT22;4320;51.498;6.556;2023-04-10T14:44:48;18.70;1.00
8565;DHT22;4320;51.498;6.556;2023-04-10T14:47:14;18.70;1.00
8565;DHT22;4320;51.498;6.556;2023-04-10T14:49:40;18.70;1.00
8565;DHT22;4320;51.498;6.556;2023-04-10T14:52:06;18.60;1.00
8565;DHT22;4320;51.498;6.556;2023-04-10T14:54:32;18.60;1.00
8565;DHT22;4320;51.498;6.556;2023-04-10T14:56:57;18.60;1.00
8565;DHT22;4320;51.498;6.556;2023-04-10T14:59:23;18.60;1.00
8565;DHT22;4320;51.498;6.556;2023-04-10T15:01:49;18.60;1.00
8565;DHT22;4320;51.498;6.556;2023-04-10T15:04:14;18.60;1.00
8565;DHT22;4320;51.498;6.556;2023-04-10T15:06:40;18.50;1.00
8565;DHT22;4320;51.498;6.556;2023-04-10T15:09:06;18.50;1.00
8565;DHT22;4320;51.498;6.556;2023-04-10T15:11:31;18.50;1.00
8565;DHT22;4320;51.498;6.556;2023-04-10T15:13:58;18.50;1.00
8565;DHT22;4320;51.498;6.556;2023-04-10T15:16:24;18.50;1.00
8565;DHT22;4320;51.498;6.556;2023-04-10T15:18:50;18.50;1.00
8565;DHT22;4320;51.498;6.556;2023-04-10T15:21:16;18.50;1.00
8565;DHT22;4320;51.498;6.556;2023-04-10T15:23:42;18.40;1.00
8565;DHT22;4320;51.498;6.556;2023-04-10T15:26:11;18.40;1.00
8565;DHT22;4320;51.498;6.556;2023-04-10T15:28:38;18.30;1.00
8565;DHT22;4320;51.498;6.556;2023-04-10T15:31:05;18.40;1.00
8565;DHT22;4320;51.498;6.556;2023-04-10T15:33:30;18.40;1.00
8565;DHT22;4320;51.498;6.556;2023-04-10T15:35:56;18.40;1.00
8565;DHT22;4320;51.498;6.556;2023-04-10T15:38:23;18.30;1.00
8565;DHT22;4320;51.498;6.556;2023-04-10T15:40:50;18.30;1.00
8565;DHT22;4320;51.498;6.556;2023-04-10T15:43:16;18.20;1.00
8565;DHT22;4320;51.498;6.556;2023-04-10T15:45:42;18.20;1.00
8565;DHT22;4320;51.498;6.556;2023-04-10T15:48:08;18.20;1.00
8565;DHT22;4320;51.498;6.556;2023-04-10T15:50:35;18.20;1.00
8565;DHT22;4320;51.498;6.556;2023-04-10T15:53:01;18.10;1.00
8565;DHT22;4320;51.498;6.556;2023-04-10T15:55:27;18.10;1.00
8565;DHT22;4320;51.498;6.556;2023-04-10T15:57:52;18.00;1.00
8565;DHT22;4320;51.498;6.556;2023-04-10T16:00:18;17.90;1.00
8565;DHT22;4320;51.498;6.556;2023-04-10T16:02:44;17.90;1.00
8565;DHT22;4320;51.498;6.556;2023-04-10T16:05:09;17.80;1.00
8565;DHT22;4320;51.498;6.556;2023-04-10T16:07:35;17.70;1.00
8565;DHT22;4320;51.498;6.556;2023-04-10T16:10:06;17.70;1.00
8565;DHT22;4320;51.498;6.556;2023-04-10T16:12:34;17.60;1.00
8565;DHT22;4320;51.498;6.556;2023-04-10T16:15:00;17.40;1.00
8565;DHT22;4320;51.498;6.556;2023-04-10T16:17:25;17.20;1.00
8565;DHT22;4320;51.498;6.556;2023-04-10T16:19:51;17.00;1.00
8565;DHT22;4320;51.498;6.556;2023-04-10T16:22:17;16.80;1.00
8565;DHT22;4320;51.498;6.556;2023-04-10T16:24:42;16.60;1.00
8565;DHT22;4320;51.498;6.556;2023-04-10T16:27:08;16.30;1.00
8565;DHT22;4320;51.498;6.556;2023-04-10T16:29:34;16.00;1.00
8565;DHT22;4320;51.498;6.556;2023-04-10T16:31:59;15.80;1.00
8565;DHT22;4320;51.498;6.556;2023-04-10T16:34:25;15.70;1.00
8565;DHT22;4320;51.498;6.556;2023-04-10T16:36:51;15.60;1.00
8565;DHT22;4320;51.498;6.556;2023-04-10T16:39:16;15.60;1.00
8565;DHT22;4320;51.498;6.556;2023-04-10T16:41:43;15.60;1.00
8565;DHT22;4320;51.498;6.556;2023-04-10T16:44:08;15.60;1.00
8565;DHT22;4320;51.498;6.556;2023-04-10T16:46:34;15.50;1.00
8565;DHT22;4320;51.498;6.556;2023-04-10T16:49:00;15.50;1.00
8565;DHT22;4320;51.498;6.556;2023-04-10T16:51:26;15.50;1.00
8565;DHT22;4320;51.498;6.556;2023-04-10T16:53:52;15.50;1.00
8565;DHT22;4320;51.498;6.556;2023-04-10T16:56:17;15.40;1.00